sensor_id;sensor_type;location;lat;lon;timestamp;P1;durP1;ratioP1;P2;durP2;ratioP2
22080;SDS011;11207;59.512;18.050;2023-03-24T00:02:11;25.40;;;5.33;;
22080;SDS011;11207;59.512;18.050;2023-03-24T00:04:37;19.07;;;5.40;;
22080;SDS011;11207;59.512;18.050;2023-03-24T00:07:06;21.57;;;5.80;;
22080;SDS011;11207;59.512;18.050;2023-03-24T00:09:32;25.60;;;7.20;;
22080;SDS011;11207;59.512;18.050;2023-03-24T00:11:58;39.53;;;9.93;;
22080;SDS011;11207;59.512;18.050;2023-03-24T00:14:24;37.17;;;8.70;;
22080;SDS011;11207;59.512;18.050;2023-03-24T00:16:50;31.10;;;9.13;;
22080;SDS011;11207;59.512;18.050;2023-03-24T00:19:16;41.90;;;10.87;;
22080;SDS011;11207;59.512;18.050;2023-03-24T00:21:43;31.60;;;8.63;;
22080;SDS011;11207;59.512;18.050;2023-03-24T00:24:10;29.10;;;6.97;;
22080;SDS011;11207;59.512;18.050;2023-03-24T00:26:37;24.47;;;6.77;;
22080;SDS011;11207;59.512;18.050;2023-03-24T00:29:05;24.47;;;7.13;;
22080;SDS011;11207;59.512;18.050;2023-03-24T00:31:32;25.07;;;7.10;;
22080;SDS011;11207;59.512;18.050;2023-03-24T00:33:58;21.17;;;7.57;;
22080;SDS011;11207;59.512;18.050;2023-03-24T00:36:26;23.43;;;6.00;;
22080;SDS011;11207;59.512;18.050;2023-03-24T00:38:53;22.70;;;6.00;;
22080;SDS011;11207;59.512;18.050;2023-03-24T00:41:19;17.07;;;6.00;;
22080;SDS011;11207;59.512;18.050;2023-03-24T00:43:46;11.40;;;4.13;;
22080;SDS011;11207;59.512;18.050;2023-03-24T00:46:14;15.17;;;5.23;;
22080;SDS011;11207;59.512;18.050;2023-03-24T00:48:56;11.00;;;4.87;;
22080;SDS011;11207;59.512;18.050;2023-03-24T00:51:33;10.83;;;4.70;;
22080;SDS011;11207;59.512;18.050;2023-03-24T00:54:03;17.20;;;5.10;;
22080;SDS011;11207;59.512;18.050;2023-03-24T00:56:30;12.43;;;4.47;;
22080;SDS011;11207;59.512;18.050;2023-03-24T00:58:58;16.40;;;4.53;;
22080;SDS011;11207;59.512;18.050;2023-03-24T01:01:26;14.63;;;4.50;;
22080;SDS011;11207;59.512;18.050;2023-03-24T01:03:53;12.50;;;3.90;;
22080;SDS011;11207;59.512;18.050;2023-03-24T01:06:21;15.10;;;4.07;;
22080;SDS011;11207;59.512;18.050;2023-03-24T01:08:48;12.33;;;4.03;;
22080;SDS011;11207;59.512;18.050;2023-03-24T01:11:17;13.23;;;4.33;;
22080;SDS011;11207;59.512;18.050;2023-03-24T01:13:47;11.30;;;4.00;;
22080;SDS011;11207;59.512;18.050;2023-03-24T01:16:13;10.90;;;3.83;;
22080;SDS011;11207;59.512;18.050;2023-03-24T01:18:39;11.73;;;4.47;;
22080;SDS011;11207;59.512;18.050;2023-03-24T01:21:07;10.90;;;4.23;;
22080;SDS011;11207;59.512;18.050;2023-03-24T01:23:33;12.27;;;4.20;;
22080;SDS011;11207;59.512;18.050;2023-03-24T01:26:02;12.70;;;4.23;;
22080;SDS011;11207;59.512;18.050;2023-03-24T01:28:30;14.33;;;4.47;;
22080;SDS011;11207;59.512;18.050;2023-03-24T01:30:56;16.63;;;4.40;;
22080;SDS011;11207;59.512;18.050;2023-03-24T01:33:21;13.40;;;4.40;;
22080;SDS011;11207;59.512;18.050;2023-03-24T01:35:47;13.87;;;4.17;;
22080;SDS011;11207;59.512;18.050;2023-03-24T01:38:13;10.33;;;4.07;;
22080;SDS011;11207;59.512;18.050;2023-03-24T01:40:41;9.20;;;4.23;;
22080;SDS011;11207;59.512;18.050;2023-03-24T01:43:15;14.77;;;5.30;;
22080;SDS011;11207;59.512;18.050;2023-03-24T01:48:34;16.87;;;4.83;;
22080;SDS011;11207;59.512;18.050;2023-03-24T01:51:11;15.37;;;4.67;;
22080;SDS011;11207;59.512;18.050;2023-03-24T01:53:41;17.70;;;4.73;;
22080;SDS011;11207;59.512;18.050;2023-03-24T01:56:10;13.57;;;4.30;;
22080;SDS011;11207;59.512;18.050;2023-03-24T01:58:37;17.60;;;6.07;;
22080;SDS011;11207;59.512;18.050;2023-03-24T02:01:06;25.23;;;5.83;;
22080;SDS011;11207;59.512;18.050;2023-03-24T02:03:32;20.97;;;4.43;;
22080;SDS011;11207;59.512;18.050;2023-03-24T02:06:02;12.13;;;3.90;;
22080;SDS011;11207;59.512;18.050;2023-03-24T02:11:16;11.87;;;4.33;;
22080;SDS011;11207;59.512;18.050;2023-03-24T02:13:42;14.53;;;4.13;;
22080;SDS011;11207;59.512;18.050;2023-03-24T02:18:37;10.93;;;3.37;;
22080;SDS011;11207;59.512;18.050;2023-03-24T02:21:36;12.10;;;3.97;;
22080;SDS011;11207;59.512;18.050;2023-03-24T02:24:50;16.03;;;4.03;;
22080;SDS011;11207;59.512;18.050;2023-03-24T02:41:32;16.43;;;4.60;;
22080;SDS011;11207;59.512;18.050;2023-03-24T02:44:26;22.23;;;4.57;;
22080;SDS011;11207;59.512;18.050;2023-03-24T02:47:24;20.27;;;4.60;;
22080;SDS011;11207;59.512;18.050;2023-03-24T02:50:07;15.50;;;4.57;;
22080;SDS011;11207;59.512;18.050;2023-03-24T02:55:54;21.30;;;4.90;;
22080;SDS011;11207;59.512;18.050;2023-03-24T02:58:30;19.83;;;5.03;;
22080;SDS011;11207;59.512;18.050;2023-03-24T03:01:05;22.47;;;5.20;;
22080;SDS011;11207;59.512;18.050;2023-03-24T03:03:48;19.67;;;4.87;;
22080;SDS011;11207;59.512;18.050;2023-03-24T03:06:22;19.37;;;5.47;;
22080;SDS011;11207;59.512;18.050;2023-03-24T03:08:51;14.77;;;4.67;;
22080;SDS011;11207;59.512;18.050;2023-03-24T03:11:19;17.63;;;5.47;;
22080;SDS011;11207;59.512;18.050;2023-03-24T03:16:23;24.27;;;4.87;;
22080;SDS011;11207;59.512;18.050;2023-03-24T03:19:26;18.20;;;4.47;;
22080;SDS011;11207;59.512;18.050;2023-03-24T03:21:54;12.67;;;4.33;;
22080;SDS011;11207;59.512;18.050;2023-03-24T03:24:24;10.70;;;4.20;;
22080;SDS011;11207;59.512;18.050;2023-03-24T03:27:02;15.37;;;4.43;;
22080;SDS011;11207;59.512;18.050;2023-03-24T03:29:36;18.70;;;4.57;;
22080;SDS011;11207;59.512;18.050;2023-03-24T03:32:04;17.17;;;4.30;;
22080;SDS011;11207;59.512;18.050;2023-03-24T03:34:39;12.23;;;3.93;;
22080;SDS011;11207;59.512;18.050;2023-03-24T03:39:58;15.77;;;4.60;;
22080;SDS011;11207;59.512;18.050;2023-03-24T03:42:26;14.20;;;4.63;;
22080;SDS011;11207;59.512;18.050;2023-03-24T03:44:52;16.40;;;4.40;;
22080;SDS011;11207;59.512;18.050;2023-03-24T03:47:18;16.33;;;4.60;;
22080;SDS011;11207;59.512;18.050;2023-03-24T03:49:45;16.27;;;4.17;;
22080;SDS011;11207;59.512;18.050;2023-03-24T03:52:11;18.07;;;4.27;;
22080;SDS011;11207;59.512;18.050;2023-03-24T03:54:38;15.33;;;4.40;;
22080;SDS011;11207;59.512;18.050;2023-03-24T03:57:05;17.10;;;4.40;;
22080;SDS011;11207;59.512;18.050;2023-03-24T03:59:35;14.43;;;3.87;;
22080;SDS011;11207;59.512;18.050;2023-03-24T04:08:00;18.80;;;4.83;;
22080;SDS011;11207;59.512;18.050;2023-03-24T04:19:00;12.83;;;4.43;;
22080;SDS011;11207;59.512;18.050;2023-03-24T04:24:55;14.00;;;3.97;;
22080;SDS011;11207;59.512;18.050;2023-03-24T04:27:46;15.13;;;4.63;;
22080;SDS011;11207;59.512;18.050;2023-03-24T04:30:39;13.90;;;4.43;;
22080;SDS011;11207;59.512;18.050;2023-03-24T04:33:13;14.47;;;4.57;;
22080;SDS011;11207;59.512;18.050;2023-03-24T04:36:09;22.43;;;6.80;;
22080;SDS011;11207;59.512;18.050;2023-03-24T04:38:41;19.40;;;6.73;;
22080;SDS011;11207;59.512;18.050;2023-03-24T04:41:09;13.77;;;4.10;;
22080;SDS011;11207;59.512;18.050;2023-03-24T04:43:36;21.33;;;4.40;;
22080;SDS011;11207;59.512;18.050;2023-03-24T04:46:03;12.13;;;3.90;;
22080;SDS011;11207;59.512;18.050;2023-03-24T04:48:30;16.00;;;4.57;;
22080;SDS011;11207;59.512;18.050;2023-03-24T04:50:57;14.37;;;4.70;;
22080;SDS011;11207;59.512;18.050;2023-03-24T04:53:25;11.43;;;4.33;;
22080;SDS011;11207;59.512;18.050;2023-03-24T04:56:00;13.43;;;3.70;;
22080;SDS011;11207;59.512;18.050;2023-03-24T04:58:37;12.27;;;4.17;;
22080;SDS011;11207;59.512;18.050;2023-03-24T05:01:03;11.90;;;4.37;;
22080;SDS011;11207;59.512;18.050;2023-03-24T05:03:30;14.10;;;4.50;;
22080;SDS011;11207;59.512;18.050;2023-03-24T05:05:55;13.40;;;4.07;;
22080;SDS011;11207;59.512;18.050;2023-03-24T05:08:21;16.50;;;4.13;;
22080;SDS011;11207;59.512;18.050;2023-03-24T05:10:47;10.37;;;4.20;;
22080;SDS011;11207;59.512;18.050;2023-03-24T05:13:13;13.60;;;4.47;;
22080;SDS011;11207;59.512;18.050;2023-03-24T05:15:39;15.17;;;4.07;;
22080;SDS011;11207;59.512;18.050;2023-03-24T05:18:05;11.80;;;4.30;;
22080;SDS011;11207;59.512;18.050;2023-03-24T05:20:31;20.87;;;4.90;;
22080;SDS011;11207;59.512;18.050;2023-03-24T05:22:56;18.90;;;5.07;;
22080;SDS011;11207;59.512;18.050;2023-03-24T05:25:22;16.90;;;4.33;;
22080;SDS011;11207;59.512;18.050;2023-03-24T05:27:48;13.63;;;4.10;;
22080;SDS011;11207;59.512;18.050;2023-03-24T05:30:14;15.80;;;4.63;;
22080;SDS011;11207;59.512;18.050;2023-03-24T05:32:40;10.53;;;4.00;;
22080;SDS011;11207;59.512;18.050;2023-03-24T05:35:06;11.93;;;4.13;;
22080;SDS011;11207;59.512;18.050;2023-03-24T05:37:32;13.30;;;4.20;;
22080;SDS011;11207;59.512;18.050;2023-03-24T05:39:58;14.40;;;4.10;;
22080;SDS011;11207;59.512;18.050;2023-03-24T05:42:23;21.93;;;4.57;;
22080;SDS011;11207;59.512;18.050;2023-03-24T05:44:49;19.03;;;4.73;;
22080;SDS011;11207;59.512;18.050;2023-03-24T05:47:14;12.53;;;4.50;;
22080;SDS011;11207;59.512;18.050;2023-03-24T05:49:41;10.67;;;3.70;;
22080;SDS011;11207;59.512;18.050;2023-03-24T05:52:07;9.37;;;4.10;;
22080;SDS011;11207;59.512;18.050;2023-03-24T05:54:34;14.37;;;4.27;;
22080;SDS011;11207;59.512;18.050;2023-03-24T05:57:00;17.87;;;5.17;;
22080;SDS011;11207;59.512;18.050;2023-03-24T05:59:26;9.10;;;3.90;;
22080;SDS011;11207;59.512;18.050;2023-03-24T06:01:52;13.23;;;4.23;;
22080;SDS011;11207;59.512;18.050;2023-03-24T06:04:20;11.47;;;3.87;;
22080;SDS011;11207;59.512;18.050;2023-03-24T06:06:47;12.70;;;3.90;;
22080;SDS011;11207;59.512;18.050;2023-03-24T06:09:15;14.10;;;4.10;;
22080;SDS011;11207;59.512;18.050;2023-03-24T06:11:46;14.47;;;3.63;;
22080;SDS011;11207;59.512;18.050;2023-03-24T06:14:11;15.37;;;3.77;;
22080;SDS011;11207;59.512;18.050;2023-03-24T06:16:37;12.17;;;3.70;;
22080;SDS011;11207;59.512;18.050;2023-03-24T06:19:03;14.90;;;4.47;;
22080;SDS011;11207;59.512;18.050;2023-03-24T06:21:31;18.27;;;5.10;;
22080;SDS011;11207;59.512;18.050;2023-03-24T06:23:57;14.07;;;4.10;;
22080;SDS011;11207;59.512;18.050;2023-03-24T06:26:23;15.77;;;5.33;;
22080;SDS011;11207;59.512;18.050;2023-03-24T06:28:49;17.00;;;3.83;;
22080;SDS011;11207;59.512;18.050;2023-03-24T06:31:18;13.07;;;4.33;;
22080;SDS011;11207;59.512;18.050;2023-03-24T06:33:46;16.70;;;4.30;;
22080;SDS011;11207;59.512;18.050;2023-03-24T06:36:12;9.97;;;3.60;;
22080;SDS011;11207;59.512;18.050;2023-03-24T06:38:39;10.30;;;3.50;;
22080;SDS011;11207;59.512;18.050;2023-03-24T06:41:06;16.70;;;4.30;;
22080;SDS011;11207;59.512;18.050;2023-03-24T06:43:32;10.97;;;3.87;;
22080;SDS011;11207;59.512;18.050;2023-03-24T06:45:58;13.50;;;4.20;;
22080;SDS011;11207;59.512;18.050;2023-03-24T06:48:25;16.43;;;4.53;;
22080;SDS011;11207;59.512;18.050;2023-03-24T06:50:51;12.43;;;4.33;;
22080;SDS011;11207;59.512;18.050;2023-03-24T06:53:18;22.73;;;4.20;;
22080;SDS011;11207;59.512;18.050;2023-03-24T06:55:45;19.70;;;4.30;;
22080;SDS011;11207;59.512;18.050;2023-03-24T06:58:12;18.03;;;4.50;;
22080;SDS011;11207;59.512;18.050;2023-03-24T07:00:39;15.93;;;4.80;;
22080;SDS011;11207;59.512;18.050;2023-03-24T07:03:05;14.50;;;4.60;;
22080;SDS011;11207;59.512;18.050;2023-03-24T07:05:32;14.67;;;3.87;;
22080;SDS011;11207;59.512;18.050;2023-03-24T07:08:02;16.10;;;4.43;;
22080;SDS011;11207;59.512;18.050;2023-03-24T07:10:28;19.40;;;4.33;;
22080;SDS011;11207;59.512;18.050;2023-03-24T07:12:54;18.13;;;4.73;;
22080;SDS011;11207;59.512;18.050;2023-03-24T07:15:19;19.13;;;4.87;;
22080;SDS011;11207;59.512;18.050;2023-03-24T07:17:45;14.87;;;5.33;;
22080;SDS011;11207;59.512;18.050;2023-03-24T07:20:11;16.60;;;4.27;;
22080;SDS011;11207;59.512;18.050;2023-03-24T07:22:36;17.63;;;4.47;;
22080;SDS011;11207;59.512;18.050;2023-03-24T07:25:02;22.77;;;4.90;;
22080;SDS011;11207;59.512;18.050;2023-03-24T07:27:30;14.87;;;4.07;;
22080;SDS011;11207;59.512;18.050;2023-03-24T07:29:59;14.87;;;4.57;;
22080;SDS011;11207;59.512;18.050;2023-03-24T07:32:28;15.07;;;4.17;;
22080;SDS011;11207;59.512;18.050;2023-03-24T07:34:54;16.10;;;4.10;;
22080;SDS011;11207;59.512;18.050;2023-03-24T07:37:21;13.90;;;4.23;;
22080;SDS011;11207;59.512;18.050;2023-03-24T07:39:47;13.63;;;4.10;;
22080;SDS011;11207;59.512;18.050;2023-03-24T07:42:12;13.40;;;3.73;;
22080;SDS011;11207;59.512;18.050;2023-03-24T07:44:38;12.40;;;3.90;;
22080;SDS011;11207;59.512;18.050;2023-03-24T07:47:04;11.07;;;3.70;;
22080;SDS011;11207;59.512;18.050;2023-03-24T07:49:30;11.23;;;4.30;;
22080;SDS011;11207;59.512;18.050;2023-03-24T07:51:55;16.80;;;5.00;;
22080;SDS011;11207;59.512;18.050;2023-03-24T07:54:22;10.37;;;4.03;;
22080;SDS011;11207;59.512;18.050;2023-03-24T07:56:49;15.07;;;4.67;;
22080;SDS011;11207;59.512;18.050;2023-03-24T07:59:15;14.20;;;5.13;;
22080;SDS011;11207;59.512;18.050;2023-03-24T08:01:41;20.93;;;4.73;;
22080;SDS011;11207;59.512;18.050;2023-03-24T08:04:10;13.43;;;3.90;;
22080;SDS011;11207;59.512;18.050;2023-03-24T08:06:44;13.70;;;3.90;;
22080;SDS011;11207;59.512;18.050;2023-03-24T08:09:10;17.53;;;4.37;;
22080;SDS011;11207;59.512;18.050;2023-03-24T08:11:37;13.17;;;4.50;;
22080;SDS011;11207;59.512;18.050;2023-03-24T08:14:03;10.17;;;3.73;;
22080;SDS011;11207;59.512;18.050;2023-03-24T08:16:28;14.93;;;3.77;;
22080;SDS011;11207;59.512;18.050;2023-03-24T08:18:54;9.43;;;3.80;;
22080;SDS011;11207;59.512;18.050;2023-03-24T08:21:22;15.73;;;4.40;;
22080;SDS011;11207;59.512;18.050;2023-03-24T08:23:48;13.43;;;4.20;;
22080;SDS011;11207;59.512;18.050;2023-03-24T08:26:14;12.17;;;4.33;;
22080;SDS011;11207;59.512;18.050;2023-03-24T08:28:40;16.60;;;4.77;;
22080;SDS011;11207;59.512;18.050;2023-03-24T08:31:06;16.63;;;4.23;;
22080;SDS011;11207;59.512;18.050;2023-03-24T08:33:32;12.57;;;4.40;;
22080;SDS011;11207;59.512;18.050;2023-03-24T08:35:58;14.80;;;4.70;;
22080;SDS011;11207;59.512;18.050;2023-03-24T08:38:25;15.93;;;4.40;;
22080;SDS011;11207;59.512;18.050;2023-03-24T08:40:54;10.50;;;3.43;;
22080;SDS011;11207;59.512;18.050;2023-03-24T08:43:22;10.83;;;3.90;;
22080;SDS011;11207;59.512;18.050;2023-03-24T08:45:49;13.67;;;3.93;;
22080;SDS011;11207;59.512;18.050;2023-03-24T08:48:15;12.70;;;4.57;;
22080;SDS011;11207;59.512;18.050;2023-03-24T08:50:41;11.37;;;3.87;;
22080;SDS011;11207;59.512;18.050;2023-03-24T08:53:07;12.60;;;3.80;;
22080;SDS011;11207;59.512;18.050;2023-03-24T08:55:33;13.57;;;4.07;;
22080;SDS011;11207;59.512;18.050;2023-03-24T08:58:02;11.67;;;3.73;;
22080;SDS011;11207;59.512;18.050;2023-03-24T09:00:27;11.33;;;3.73;;
22080;SDS011;11207;59.512;18.050;2023-03-24T09:02:53;11.20;;;3.60;;
22080;SDS011;11207;59.512;18.050;2023-03-24T09:05:20;10.83;;;3.70;;
22080;SDS011;11207;59.512;18.050;2023-03-24T09:07:47;7.53;;;3.90;;
22080;SDS011;11207;59.512;18.050;2023-03-24T09:10:14;11.27;;;3.67;;
22080;SDS011;11207;59.512;18.050;2023-03-24T09:12:40;10.47;;;3.60;;
22080;SDS011;11207;59.512;18.050;2023-03-24T09:15:07;10.83;;;3.80;;
22080;SDS011;11207;59.512;18.050;2023-03-24T09:17:34;21.70;;;4.23;;
22080;SDS011;11207;59.512;18.050;2023-03-24T09:20:00;13.00;;;3.70;;
22080;SDS011;11207;59.512;18.050;2023-03-24T09:22:31;10.83;;;3.37;;
22080;SDS011;11207;59.512;18.050;2023-03-24T09:24:56;10.30;;;3.50;;
22080;SDS011;11207;59.512;18.050;2023-03-24T09:27:22;12.83;;;3.30;;
22080;SDS011;11207;59.512;18.050;2023-03-24T09:29:48;13.53;;;3.87;;
22080;SDS011;11207;59.512;18.050;2023-03-24T09:32:13;11.83;;;3.90;;
22080;SDS011;11207;59.512;18.050;2023-03-24T09:34:39;8.60;;;3.67;;
22080;SDS011;11207;59.512;18.050;2023-03-24T09:37:05;15.27;;;3.73;;
22080;SDS011;11207;59.512;18.050;2023-03-24T09:39:31;8.40;;;3.13;;
22080;SDS011;11207;59.512;18.050;2023-03-24T09:41:59;12.43;;;3.47;;
22080;SDS011;11207;59.512;18.050;2023-03-24T09:44:42;15.07;;;3.33;;
22080;SDS011;11207;59.512;18.050;2023-03-24T09:49:48;7.73;;;3.03;;
22080;SDS011;11207;59.512;18.050;2023-03-24T09:52:16;7.07;;;3.00;;
22080;SDS011;11207;59.512;18.050;2023-03-24T09:54:49;6.33;;;2.87;;
22080;SDS011;11207;59.512;18.050;2023-03-24T09:57:23;5.30;;;2.83;;
22080;SDS011;11207;59.512;18.050;2023-03-24T10:03:18;12.17;;;3.23;;
22080;SDS011;11207;59.512;18.050;2023-03-24T10:06:00;10.53;;;3.47;;
22080;SDS011;11207;59.512;18.050;2023-03-24T10:08:35;7.63;;;3.27;;
22080;SDS011;11207;59.512;18.050;2023-03-24T10:16:35;6.37;;;3.40;;
22080;SDS011;11207;59.512;18.050;2023-03-24T10:22:10;7.03;;;3.20;;
22080;SDS011;11207;59.512;18.050;2023-03-24T10:30:03;9.43;;;3.60;;
22080;SDS011;11207;59.512;18.050;2023-03-24T10:32:42;8.90;;;2.90;;
22080;SDS011;11207;59.512;18.050;2023-03-24T10:35:13;12.17;;;3.47;;
22080;SDS011;11207;59.512;18.050;2023-03-24T10:37:43;9.60;;;3.50;;
22080;SDS011;11207;59.512;18.050;2023-03-24T10:40:13;7.30;;;3.00;;
22080;SDS011;11207;59.512;18.050;2023-03-24T10:42:42;12.37;;;3.40;;
22080;SDS011;11207;59.512;18.050;2023-03-24T10:45:12;9.77;;;3.23;;
22080;SDS011;11207;59.512;18.050;2023-03-24T10:47:49;10.33;;;4.30;;
22080;SDS011;11207;59.512;18.050;2023-03-24T10:50:17;9.47;;;3.37;;
22080;SDS011;11207;59.512;18.050;2023-03-24T10:52:47;8.40;;;3.30;;
22080;SDS011;11207;59.512;18.050;2023-03-24T10:55:15;13.63;;;3.57;;
22080;SDS011;11207;59.512;18.050;2023-03-24T10:57:43;9.90;;;3.53;;
22080;SDS011;11207;59.512;18.050;2023-03-24T11:00:20;10.20;;;3.77;;
22080;SDS011;11207;59.512;18.050;2023-03-24T11:03:04;10.77;;;3.53;;
22080;SDS011;11207;59.512;18.050;2023-03-24T11:05:34;8.30;;;3.20;;
22080;SDS011;11207;59.512;18.050;2023-03-24T11:10:46;11.07;;;3.50;;
22080;SDS011;11207;59.512;18.050;2023-03-24T11:13:16;13.37;;;3.27;;
22080;SDS011;11207;59.512;18.050;2023-03-24T11:19:00;9.40;;;3.63;;
22080;SDS011;11207;59.512;18.050;2023-03-24T11:21:29;16.53;;;4.23;;
22080;SDS011;11207;59.512;18.050;2023-03-24T11:23:59;17.43;;;5.00;;
22080;SDS011;11207;59.512;18.050;2023-03-24T11:26:32;15.00;;;4.47;;
22080;SDS011;11207;59.512;18.050;2023-03-24T11:29:00;14.80;;;4.30;;
22080;SDS011;11207;59.512;18.050;2023-03-24T11:31:32;17.53;;;4.50;;
22080;SDS011;11207;59.512;18.050;2023-03-24T11:34:05;18.10;;;4.67;;
22080;SDS011;11207;59.512;18.050;2023-03-24T11:36:35;16.00;;;4.23;;
22080;SDS011;11207;59.512;18.050;2023-03-24T11:41:32;10.97;;;3.77;;
22080;SDS011;11207;59.512;18.050;2023-03-24T11:46:42;14.37;;;4.37;;
22080;SDS011;11207;59.512;18.050;2023-03-24T11:49:12;10.43;;;3.23;;
22080;SDS011;11207;59.512;18.050;2023-03-24T11:51:40;10.87;;;3.67;;
22080;SDS011;11207;59.512;18.050;2023-03-24T11:54:13;17.07;;;4.23;;
22080;SDS011;11207;59.512;18.050;2023-03-24T11:56:45;10.57;;;3.80;;
22080;SDS011;11207;59.512;18.050;2023-03-24T12:04:44;10.37;;;4.53;;
22080;SDS011;11207;59.512;18.050;2023-03-24T12:07:30;13.90;;;4.33;;
22080;SDS011;11207;59.512;18.050;2023-03-24T12:15:41;12.40;;;3.60;;
22080;SDS011;11207;59.512;18.050;2023-03-24T12:23:25;15.00;;;4.80;;
22080;SDS011;11207;59.512;18.050;2023-03-24T12:26:05;11.67;;;4.00;;
22080;SDS011;11207;59.512;18.050;2023-03-24T12:28:50;17.33;;;5.13;;
22080;SDS011;11207;59.512;18.050;2023-03-24T12:37:15;20.70;;;4.90;;
22080;SDS011;11207;59.512;18.050;2023-03-24T12:39:50;19.67;;;4.87;;
22080;SDS011;11207;59.512;18.050;2023-03-24T12:42:30;13.80;;;4.17;;
22080;SDS011;11207;59.512;18.050;2023-03-24T12:47:57;17.73;;;4.83;;
22080;SDS011;11207;59.512;18.050;2023-03-24T12:53:31;20.97;;;5.23;;
22080;SDS011;11207;59.512;18.050;2023-03-24T12:58:40;18.13;;;5.23;;
22080;SDS011;11207;59.512;18.050;2023-03-24T13:01:37;15.77;;;4.87;;
22080;SDS011;11207;59.512;18.050;2023-03-24T13:09:22;17.90;;;5.10;;
22080;SDS011;11207;59.512;18.050;2023-03-24T13:15:24;18.27;;;5.20;;
22080;SDS011;11207;59.512;18.050;2023-03-24T13:17:46;20.27;;;4.70;;
22080;SDS011;11207;59.512;18.050;2023-03-24T13:20:15;27.80;;;5.60;;
22080;SDS011;11207;59.512;18.050;2023-03-24T13:22:50;22.80;;;5.43;;
22080;SDS011;11207;59.512;18.050;2023-03-24T13:25:29;19.07;;;4.87;;
22080;SDS011;11207;59.512;18.050;2023-03-24T13:28:17;18.90;;;5.37;;
22080;SDS011;11207;59.512;18.050;2023-03-24T13:30:49;20.70;;;5.30;;
22080;SDS011;11207;59.512;18.050;2023-03-24T13:33:16;21.83;;;5.67;;
22080;SDS011;11207;59.512;18.050;2023-03-24T13:35:59;18.90;;;5.37;;
22080;SDS011;11207;59.512;18.050;2023-03-24T13:38:34;19.03;;;5.90;;
22080;SDS011;11207;59.512;18.050;2023-03-24T13:41:12;19.77;;;6.23;;
22080;SDS011;11207;59.512;18.050;2023-03-24T13:43:46;24.83;;;7.97;;
22080;SDS011;11207;59.512;18.050;2023-03-24T13:46:14;17.80;;;5.80;;
22080;SDS011;11207;59.512;18.050;2023-03-24T13:48:44;14.43;;;5.23;;
22080;SDS011;11207;59.512;18.050;2023-03-24T13:53:51;9.90;;;4.33;;
22080;SDS011;11207;59.512;18.050;2023-03-24T13:56:33;10.90;;;4.27;;
22080;SDS011;11207;59.512;18.050;2023-03-24T14:12:51;7.22;;;3.45;;
22080;SDS011;11207;59.512;18.050;2023-03-24T14:15:26;7.53;;;3.60;;
22080;SDS011;11207;59.512;18.050;2023-03-24T14:18:44;4.30;;;3.27;;
22080;SDS011;11207;59.512;18.050;2023-03-24T14:28:52;9.80;;;4.10;;
22080;SDS011;11207;59.512;18.050;2023-03-24T14:31:20;7.57;;;3.00;;
22080;SDS011;11207;59.512;18.050;2023-03-24T14:45:01;4.17;;;3.10;;
22080;SDS011;11207;59.512;18.050;2023-03-24T14:47:56;4.10;;;2.67;;
22080;SDS011;11207;59.512;18.050;2023-03-24T14:50:23;3.93;;;2.70;;
22080;SDS011;11207;59.512;18.050;2023-03-24T14:52:56;4.77;;;3.00;;
22080;SDS011;11207;59.512;18.050;2023-03-24T14:55:24;3.10;;;2.80;;
22080;SDS011;11207;59.512;18.050;2023-03-24T14:57:52;3.10;;;2.80;;
22080;SDS011;11207;59.512;18.050;2023-03-24T15:06:11;2.90;;;2.67;;
22080;SDS011;11207;59.512;18.050;2023-03-24T15:09:07;2.67;;;2.47;;
22080;SDS011;11207;59.512;18.050;2023-03-24T15:11:38;3.47;;;3.17;;
22080;SDS011;11207;59.512;18.050;2023-03-24T15:14:05;3.27;;;2.73;;
22080;SDS011;11207;59.512;18.050;2023-03-24T15:16:53;3.17;;;2.93;;
22080;SDS011;11207;59.512;18.050;2023-03-24T15:19:25;3.90;;;3.50;;
22080;SDS011;11207;59.512;18.050;2023-03-24T15:22:04;2.80;;;2.60;;
22080;SDS011;11207;59.512;18.050;2023-03-24T15:24:36;2.40;;;2.30;;
22080;SDS011;11207;59.512;18.050;2023-03-24T15:29:31;3.43;;;2.50;;
22080;SDS011;11207;59.512;18.050;2023-03-24T15:32:02;2.70;;;2.50;;
22080;SDS011;11207;59.512;18.050;2023-03-24T15:34:36;3.00;;;2.80;;
22080;SDS011;11207;59.512;18.050;2023-03-24T15:37:05;2.77;;;2.53;;
22080;SDS011;11207;59.512;18.050;2023-03-24T15:39:47;2.47;;;2.33;;
22080;SDS011;11207;59.512;18.050;2023-03-24T15:42:16;3.17;;;2.97;;
22080;SDS011;11207;59.512;18.050;2023-03-24T15:44:44;2.73;;;2.53;;
22080;SDS011;11207;59.512;18.050;2023-03-24T15:47:29;2.73;;;2.53;;
22080;SDS011;11207;59.512;18.050;2023-03-24T15:49:57;3.07;;;2.87;;
22080;SDS011;11207;59.512;18.050;2023-03-24T15:55:06;3.00;;;2.80;;
22080;SDS011;11207;59.512;18.050;2023-03-24T15:57:52;3.50;;;3.20;;
22080;SDS011;11207;59.512;18.050;2023-03-24T16:00:25;3.50;;;3.20;;
22080;SDS011;11207;59.512;18.050;2023-03-24T16:02:54;3.90;;;3.30;;
22080;SDS011;11207;59.512;18.050;2023-03-24T16:05:25;4.50;;;3.73;;
22080;SDS011;11207;59.512;18.050;2023-03-24T16:07:56;3.70;;;3.40;;
22080;SDS011;11207;59.512;18.050;2023-03-24T16:10:30;3.27;;;3.07;;
22080;SDS011;11207;59.512;18.050;2023-03-24T16:12:58;3.50;;;3.20;;
22080;SDS011;11207;59.512;18.050;2023-03-24T16:15:43;3.57;;;3.23;;
22080;SDS011;11207;59.512;18.050;2023-03-24T16:18:20;3.40;;;3.20;;
22080;SDS011;11207;59.512;18.050;2023-03-24T16:20:49;3.30;;;3.00;;
22080;SDS011;11207;59.512;18.050;2023-03-24T16:23:15;3.43;;;3.23;;
22080;SDS011;11207;59.512;18.050;2023-03-24T16:25:42;3.00;;;2.80;;
22080;SDS011;11207;59.512;18.050;2023-03-24T16:28:09;3.83;;;3.53;;
22080;SDS011;11207;59.512;18.050;2023-03-24T16:30:37;3.10;;;2.90;;
22080;SDS011;11207;59.512;18.050;2023-03-24T16:33:05;3.30;;;3.00;;
22080;SDS011;11207;59.512;18.050;2023-03-24T16:35:32;3.03;;;2.83;;
22080;SDS011;11207;59.512;18.050;2023-03-24T16:37:58;4.20;;;3.53;;
22080;SDS011;11207;59.512;18.050;2023-03-24T16:40:30;3.67;;;3.10;;
22080;SDS011;11207;59.512;18.050;2023-03-24T16:43:03;3.20;;;3.00;;
22080;SDS011;11207;59.512;18.050;2023-03-24T16:45:29;3.30;;;3.10;;
22080;SDS011;11207;59.512;18.050;2023-03-24T16:47:55;3.50;;;3.20;;
22080;SDS011;11207;59.512;18.050;2023-03-24T16:52:59;4.13;;;3.80;;
22080;SDS011;11207;59.512;18.050;2023-03-24T16:55:24;4.50;;;3.57;;
22080;SDS011;11207;59.512;18.050;2023-03-24T16:57:50;4.97;;;4.27;;
22080;SDS011;11207;59.512;18.050;2023-03-24T17:00:16;5.27;;;4.77;;
22080;SDS011;11207;59.512;18.050;2023-03-24T17:02:42;3.80;;;3.50;;
22080;SDS011;11207;59.512;18.050;2023-03-24T17:05:17;4.07;;;3.50;;
22080;SDS011;11207;59.512;18.050;2023-03-24T17:07:48;4.27;;;3.47;;
22080;SDS011;11207;59.512;18.050;2023-03-24T17:10:15;3.37;;;3.17;;
22080;SDS011;11207;59.512;18.050;2023-03-24T17:12:41;3.30;;;3.00;;
22080;SDS011;11207;59.512;18.050;2023-03-24T17:15:09;3.87;;;3.57;;
22080;SDS011;11207;59.512;18.050;2023-03-24T17:17:42;3.87;;;3.57;;
22080;SDS011;11207;59.512;18.050;2023-03-24T17:20:07;3.83;;;3.53;;
22080;SDS011;11207;59.512;18.050;2023-03-24T17:22:33;4.13;;;3.80;;
22080;SDS011;11207;59.512;18.050;2023-03-24T17:24:59;4.10;;;3.70;;
22080;SDS011;11207;59.512;18.050;2023-03-24T17:27:24;4.37;;;3.97;;
22080;SDS011;11207;59.512;18.050;2023-03-24T17:29:50;5.07;;;4.33;;
22080;SDS011;11207;59.512;18.050;2023-03-24T17:32:16;4.20;;;3.90;;